Paradise Valley, Nevada Weather observations

Data are for 10 minute period ending at time listed.
 Day   Time   Solar   Ave.   Ave.  Ave.  Vector  Max.   Baro.   Total    
  of    of     Rad.   Air    Rel.  Wind   Wind   Wind  Press.  Precip.   
Year   Day            Temp.  Hum.  Speed  Dir.   Gust                    
2015   (PST)  Kw/m2    F      %     mph   deg.    mph    mb.     in.     
-------------------------------------------------------------------------
  87    8:50   0.59   54.5    46   17.8   324    24.3   871.5    0.00 
  87    9:00   0.62   54.4    45   17.5   319    27.2   871.6    0.00 
  87    9:10   0.65   54.8    44   18.6   310    28.1   871.4    0.00 
  87    9:20   0.68   54.4    37   18.4   311    27.2   871.7    0.00 
  87    9:30   0.70   55.2    34   14.3   308    21.6   872.0    0.00 
  87    9:40   0.73   55.9    35   15.4   312    21.3   872.0    0.00 
  87    9:50   0.75   56.2    39   14.4   317    21.2   872.1    0.00 
  87   10:00   0.77   56.0    37   14.9   317    21.6   872.5    0.00 
  87   10:10   0.79   56.2    32   16.3   319    26.2   872.5    0.00 
  87   10:20   0.81   56.6    37   15.0   332    26.1   872.6    0.00 
  87   10:30   0.83   56.1    37   16.9   336    23.8   872.8    0.00 
  87   10:40   0.85   56.0    35   15.8   338    20.8   872.9    0.00 
  87   10:50   0.86   56.6    35   15.2   349    20.1   872.8    0.00 
  87   11:00   0.87   57.2    34   15.3   340    20.8   872.7    0.00 
  87   11:10   0.89   58.0    32   14.0   335    24.2   872.5    0.00 
  87   11:20   0.89   58.3    31   13.4   331    22.9   872.5    0.00 
  87   11:30   0.90   59.5    28   11.9   326    17.8   872.4    0.00 
  87   11:40   0.90   60.9    23    8.0   282    20.5   872.3    0.00 
  87   11:50   0.91   62.4    21    6.2   289    12.5   872.3    0.00 
  87   12:00   0.91   62.7    20    6.4   326    12.3   872.3    0.00 
  87   12:10   0.91   62.1    21    6.5   357    12.3   872.3    0.00 
  87   12:20   0.90   62.8    20    5.2    13    11.3   872.2    0.00 
  87   12:30   0.90   62.9    19    6.6    31    10.5   872.3    0.00 
  87   12:40   0.89   63.2    23    8.4   356    16.1   872.2    0.00 
  87   12:50   0.88   63.3    24    6.6   337    10.5   872.2    0.00 
  87   13:00   0.87   63.1    25    9.6   357    15.2   872.1    0.00 
  87   13:10   0.86   63.4    26    9.4   345    15.5   872.1    0.00 
  87   13:20   0.84   63.6    25    9.5   355    16.1   872.0    0.00 
  87   13:30   0.83   63.6    24    8.7   355    12.0   871.9    0.00 
  87   13:40   0.82   64.3    21    5.4   356     8.5   871.8    0.00 
  87   13:50   0.80   64.5    20    5.7    43    10.8   871.8    0.00 
  87   14:00   0.78   64.4    21    5.3   322     9.6   871.8    0.00 
  87   14:10   0.76   65.1    19    3.7   342     9.0   871.8    0.00 
  87   14:20   0.73   64.9    18    3.6    44     7.9   871.8    0.00 
  87   14:30   0.71   64.9    18    4.4    34     8.2   871.7    0.00 
  87   14:40   0.68   65.7    18    2.0   344     4.6   871.6    0.00 
  87   14:50   0.65   65.9    20    3.7     1     8.0   871.5    0.00 
  87   15:00   0.63   66.1    19    2.6   323     7.9   871.4    0.00 
  87   15:10   0.60   65.2    20    4.3   353     7.3   871.4    0.00 
  87   15:20   0.57   65.3    19    4.2     2     6.6   871.4    0.00 
  87   15:30   0.54   65.5    19    3.5    25     8.1   871.3    0.00 
  87   15:40   0.51   64.9    19    5.5   359     9.0   871.2    0.00 
  87   15:50   0.49   65.8    17    3.8   345     7.7   871.2    0.00 
  87   16:00   0.21   64.3    19    6.0   313     9.2   871.3    0.00 
  87   16:10   0.38   62.5    24    7.7   308    10.5   871.3    0.00 
  87   16:20   0.30   63.0    20    9.4   304    12.9   871.3    0.00 
  87   16:30   0.29   61.5    24    7.3   310    11.5   871.3    0.00 
  87   16:40   0.31   62.1    21    6.6   310    10.6   871.2    0.00 
  87   16:50   0.27   62.8    20    5.4   308     9.6   871.2    0.00 
  87   17:00   0.23   61.8    21    4.8   331     7.9   871.2    0.00 
  87   17:10   0.19   61.8    16    3.6    10     5.2   871.1    0.00 
  87   17:20   0.16   61.4    18    5.2    23     8.5   871.1    0.00 
  87   17:30   0.13   61.1    16    4.9    26     9.2   871.0    0.00 
  87   17:40   0.04   58.1    18    6.2   348    10.4   871.1    0.00 
  87   17:50   0.02   55.0    25    4.9   323     7.4   871.0    0.00 
  87   18:00   0.01   53.0    27    4.7   343     5.9   870.8    0.00 
  87   18:10   0.01   51.4    31    7.5   339    14.7   870.8    0.00 
  87   18:20   0.01   53.0    24   13.6   327    22.1   870.7    0.00 
  87   18:30   0.00   54.8    22   14.7   345    21.9   870.8    0.00 
  87   18:40   0.00   55.1    20   12.5   349    23.9   871.1    0.00 
  87   18:50   0.00   50.4    31    8.5   338    12.6   871.3    0.00 
  87   19:00   0.00   48.5    31    7.8   336    10.5   871.4    0.00 
  87   19:10   0.00   47.4    29    7.4   322     9.3   871.6    0.00 
  87   19:20   0.00   47.1    29    7.7   321     9.4   871.8    0.00 
  87   19:30   0.00   47.2    30    7.8   323     9.4   872.0    0.00 
  87   19:40   0.00   46.5    31    8.5   323    10.3   872.2    0.00 
  87   19:50   0.00   47.5    29    8.4   333    11.6   872.3    0.00 
  87   20:00   0.00   47.5    31    7.8   338    11.5   872.5    0.00 
  87   20:10   0.00   46.4    35    6.3   337     8.1   872.5    0.00 
  87   20:20   0.00   44.6    37    6.0   332     7.7   872.5    0.00 
  87   20:30   0.00   44.1    38    6.3   338     7.8   872.5    0.00 
  87   20:40   0.00   43.5    43    6.8   348     8.7   872.5    0.00 
  87   20:50   0.00   43.3    39    6.8   348     9.1   872.6    0.00 
  87   21:00   0.00   41.1    49    6.2   331     7.4   872.8    0.00 
  87   21:10   0.00   41.1    42    6.3   327     7.4   872.9    0.00 
  87   21:20   0.00   41.1    40    6.9   327     7.7   872.9    0.00 
  87   21:30   0.00   41.3    40    7.2   333     9.3   872.9    0.00 
  87   21:40   0.00   41.0    42    6.4   331     8.0   873.0    0.00 
  87   21:50   0.00   39.9    46    7.1   331     8.3   873.1    0.00 
  87   22:00   0.00   40.2    46    7.7   332     9.1   873.1    0.00 
  87   22:10   0.00   40.8    43    8.7   336    12.3   873.3    0.00 
  87   22:20   0.00   40.7    45    7.1   340     9.0   873.5    0.00 
  87   22:30   0.00   40.1    44    7.3   327     9.4   873.5    0.00 
  87   22:40   0.00   40.7    39    6.8   326     9.0   873.5    0.00 
  87   22:50   0.00   40.5    43    7.1   338     9.2   873.5    0.00 
  87   23:00   0.00   39.8    47    7.6   338    10.9   873.6    0.00 
  87   23:10   0.00   39.9    45    7.1   336     8.3   873.6    0.00 
  87   23:20   0.00   38.1    47    7.2   328     8.4   873.6    0.00 
  87   23:30   0.00   38.2    46    7.9   327     9.3   873.5    0.00 
  87   23:40   0.00   38.5    47    7.0   324     8.9   873.5    0.00 
  87   23:50   0.00   37.7    47    5.5   321     7.0   873.6    0.00 
  88    0:00   0.00   38.6    45    7.3   328     8.9   873.7    0.00 
  88    0:10   0.00   38.1    48    7.4   335     9.8   873.7    0.00 
  88    0:20   0.00   38.6    48    6.4   334     8.8   873.6    0.00 
  88    0:30   0.00   37.8    50    7.0   337     8.1   873.6    0.00 
  88    0:40   0.00   37.9    51    7.8   342     9.6   873.6    0.00 
  88    0:50   0.00   38.6    50    7.3   347     8.8   873.6    0.00 
  88    1:00   0.00   37.5    54    6.0   349     7.2   873.7    0.00 
  88    1:10   0.00   36.7    57    6.3   354     8.0   873.7    0.00 
  88    1:20   0.00   36.1    59    6.1   347     7.6   873.6    0.00 
  88    1:30   0.00   36.4    58    6.4   350     7.5   873.4    0.00 
  88    1:40   0.00   35.7    60    6.3   358     7.7   873.4    0.00 
  88    1:50   0.00   36.1    58    6.3   341     7.9   873.3    0.00 
  88    2:00   0.00   36.0    58    4.9   354     6.3   873.4    0.00 
  88    2:10   0.00   35.6    60    5.5   345     6.9   873.4    0.00 
  88    2:20   0.00   34.7    60    6.6   336     8.4   873.4    0.00 
  88    2:30   0.00   35.3    58    7.6   334     9.2   873.3    0.00 
  88    2:40   0.00   35.5    55    6.5   330     8.3   873.3    0.00 
  88    2:50   0.00   35.1    56    6.2   331     8.6   873.3    0.00 
  88    3:00   0.00   35.0    59    5.9   351     7.7   873.3    0.00 
  88    3:10   0.00   35.6    59    6.9     0     8.8   873.3    0.00 
  88    3:20   0.00   35.7    59    6.6     0     8.1   873.3    0.00 
  88    3:30   0.00   34.1    60    5.5    12     7.3   873.4    0.00 
  88    3:40   0.00   33.1    63    5.9     1     9.7   873.3    0.00 
  88    3:50   0.00   32.0    68    6.2   349     8.1   873.3    0.00 
  88    4:00   0.00   33.7    66    6.4   339     8.4   873.1    0.00 
  88    4:10   0.00   33.1    66    5.9   340     7.1   873.1    0.00 
  88    4:20   0.00   32.5    68    3.7     1     5.4   873.3    0.00 
  88    4:30   0.00   31.7    66    2.4    10     3.5   873.3    0.00 
  88    4:40   0.00   33.1    60    4.1    25     6.2   873.3    0.00 
  88    4:50   0.00   32.9    59    4.8    29     6.1   873.3    0.00 
  88    5:00   0.00   32.4    58    4.0    21     4.7   873.3    0.00 
  88    5:10   0.00   31.3    63    4.9     7     5.7   873.2    0.00 
  88    5:20   0.00   30.4    69    5.3   334     6.9   873.1    0.00 
  88    5:30   0.00   31.5    66    5.0   332     6.1   873.2    0.00 
  88    5:40   0.01   32.7    65    5.5   349     6.9   873.2    0.00 
  88    5:50   0.01   33.7    63    6.4   352     7.8   873.3    0.00 
  88    6:00   0.04   34.3    61    7.2   356     9.3   873.4    0.00 
  88    6:10   0.06   34.3    60    6.5   359     8.1   873.4    0.00 
  88    6:20   0.09   34.0    65    3.2   355     5.5   873.5    0.00 
  88    6:30   0.12   33.9    68    4.3   347     6.0   873.6    0.00 
  88    6:40   0.15   34.7    70    3.8   346     5.6   873.6    0.00 
  88    6:50   0.19   36.7    65    2.2    22     3.7   873.6    0.00 
  88    7:00   0.22   38.8    58    4.4   356     6.3   873.5    0.00 
  88    7:10   0.26   40.3    55    6.6   345     8.8   873.4    0.00 
  88    7:20   0.29   41.6    52    7.4   343     9.5   873.4    0.00 
  88    7:30   0.33   43.0    49    6.1   352     8.1   873.4    0.00 
  88    7:40   0.37   44.3    44    6.2   356     8.0   873.4    0.00 
  88    7:50   0.40   45.4    42    4.7   344     6.7   873.2    0.00 
  88    8:00   0.44   46.3    38    5.5   336     7.6   873.1    0.00 
  88    8:10   0.47   46.9    34    6.3   344     8.5   873.1    0.00 
  88    8:20   0.51   47.5    33    5.4   356     7.4   873.1    0.00 
  88    8:30   0.54   48.7    33    4.8   360     7.5   873.0    0.00 
  88    8:40   0.57   49.6    30    3.3   356     6.0   872.9    0.00 

Return to Paradise Valley graphs page.


Western Regional Climate Center,wrcc@dri.edu